createdAt,value
2023-01-11T00:00:41.000Z,7.90
2023-01-11T00:03:08.544Z,7.90
2023-01-11T00:05:44.078Z,7.80
2023-01-11T00:08:12.575Z,7.90
2023-01-11T00:10:40.789Z,7.70
2023-01-11T00:13:08.441Z,7.70
2023-01-11T00:15:38.403Z,7.70
2023-01-11T00:18:06.574Z,7.70
2023-01-11T00:20:34.032Z,7.70
2023-01-11T00:23:01.614Z,7.70
2023-01-11T00:25:29.567Z,7.60
2023-01-11T00:27:57.134Z,7.60
2023-01-11T00:30:26.328Z,7.60
2023-01-11T00:32:57.827Z,7.50
2023-01-11T00:35:26.861Z,7.50
2023-01-11T00:37:54.614Z,7.40
2023-01-11T00:40:24.080Z,7.30
2023-01-11T00:43:09.930Z,7.30
2023-01-11T00:45:56.313Z,7.40
2023-01-11T00:48:23.721Z,7.50
2023-01-11T00:50:54.394Z,7.50
2023-01-11T00:53:21.955Z,7.50
2023-01-11T00:55:49.388Z,7.50
2023-01-11T00:58:16.848Z,7.40
2023-01-11T01:00:44.355Z,7.30
2023-01-11T01:03:11.922Z,7.20
2023-01-11T01:05:39.569Z,7.20
2023-01-11T01:08:07.327Z,7.20
2023-01-11T01:10:34.798Z,7.10
2023-01-11T01:13:21.534Z,7.10
2023-01-11T01:15:49.102Z,7.00
2023-01-11T01:18:16.626Z,7.00
2023-01-11T01:20:44.121Z,7.00
2023-01-11T01:23:11.532Z,7.00
2023-01-11T01:25:39.053Z,7.00
2023-01-11T01:28:06.544Z,6.90
2023-01-11T01:30:34.014Z,6.90
2023-01-11T01:33:01.424Z,6.80
2023-01-11T01:35:28.974Z,6.80
2023-01-11T01:37:56.443Z,6.60
2023-01-11T01:40:23.898Z,6.60
2023-01-11T01:42:55.423Z,6.60
2023-01-11T01:45:25.682Z,6.60
2023-01-11T01:47:53.169Z,6.60
2023-01-11T01:50:41.732Z,6.60
2023-01-11T01:53:17.271Z,6.60
2023-01-11T01:55:51.741Z,6.60
2023-01-11T01:58:22.629Z,6.70
2023-01-11T02:00:50.643Z,6.60
2023-01-11T02:03:22.168Z,6.60
2023-01-11T02:05:51.250Z,6.70
2023-01-11T02:08:29.496Z,6.60
2023-01-11T02:10:57.533Z,6.60
2023-01-11T02:13:25.488Z,6.60
2023-01-11T02:16:07.881Z,6.50
2023-01-11T02:18:37.384Z,6.50
2023-01-11T02:21:22.158Z,6.40
2023-01-11T02:24:04.736Z,6.40
2023-01-11T02:27:13.275Z,6.40
2023-01-11T02:29:57.628Z,6.40
2023-01-11T02:32:35.172Z,6.50
2023-01-11T02:35:17.012Z,6.40
2023-01-11T02:37:57.149Z,6.50
2023-01-11T02:40:38.691Z,6.50
2023-01-11T02:43:33.009Z,6.50
2023-01-11T02:46:05.683Z,6.60
2023-01-11T02:48:45.652Z,6.60
2023-01-11T02:51:23.949Z,6.50
2023-01-11T02:53:59.468Z,6.50
2023-01-11T02:56:30.859Z,6.50
2023-01-11T02:59:01.036Z,6.40
2023-01-11T03:01:28.595Z,6.40
2023-01-11T03:03:56.215Z,6.30
2023-01-11T03:06:32.256Z,6.30
2023-01-11T03:09:44.100Z,6.30
2023-01-11T03:12:54.961Z,6.30
2023-01-11T03:15:39.196Z,6.20
2023-01-11T03:18:27.105Z,6.20
2023-01-11T03:21:14.321Z,6.20
2023-01-11T03:23:53.816Z,6.10
2023-01-11T03:26:33.980Z,6.10
2023-01-11T03:29:01.437Z,6.20
2023-01-11T03:31:37.419Z,6.20
2023-01-11T03:34:11.094Z,6.20
2023-01-11T03:37:01.261Z,6.20
2023-01-11T03:39:45.225Z,6.10
2023-01-11T03:42:16.733Z,6.10
2023-01-11T03:44:47.207Z,6.00
2023-01-11T03:47:16.731Z,6.00
2023-01-11T03:49:54.844Z,6.00
2023-01-11T03:52:27.038Z,6.00
2023-01-11T03:54:56.664Z,6.00
2023-01-11T03:57:29.607Z,5.90
2023-01-11T03:59:57.640Z,5.90
2023-01-11T04:02:27.589Z,6.00
2023-01-11T04:04:55.503Z,6.00
2023-01-11T04:07:23.070Z,5.90
2023-01-11T04:09:50.691Z,5.90
2023-01-11T04:12:18.134Z,5.90
2023-01-11T04:14:45.626Z,5.90
2023-01-11T04:17:13.080Z,5.90
2023-01-11T04:19:40.850Z,5.90
2023-01-11T04:22:08.336Z,5.90
2023-01-11T04:24:35.799Z,5.90
2023-01-11T04:27:03.274Z,5.90
2023-01-11T04:29:30.826Z,5.90
2023-01-11T04:31:58.264Z,5.80
2023-01-11T04:34:25.734Z,5.90
2023-01-11T04:36:53.205Z,5.90
2023-01-11T04:39:20.757Z,6.00
2023-01-11T04:42:06.705Z,5.90
2023-01-11T04:44:34.141Z,5.90
2023-01-11T04:47:01.598Z,5.90
2023-01-11T04:49:29.070Z,5.90
2023-01-11T04:51:56.530Z,5.90
2023-01-11T04:54:24.030Z,5.90
2023-01-11T04:56:51.482Z,5.90
2023-01-11T04:59:18.934Z,5.90
2023-01-11T05:01:46.387Z,5.90
2023-01-11T05:04:13.899Z,5.90
2023-01-11T05:06:41.388Z,5.80
2023-01-11T05:09:14.461Z,5.80
2023-01-11T05:11:42.017Z,5.70
2023-01-11T05:14:09.639Z,5.60
2023-01-11T05:16:37.491Z,5.60
2023-01-11T05:19:06.674Z,5.50
2023-01-11T05:21:37.064Z,5.50
2023-01-11T05:24:07.008Z,5.50
2023-01-11T05:26:37.014Z,5.40
2023-01-11T05:29:10.921Z,5.40
2023-01-11T05:31:40.052Z,5.40
2023-01-11T05:34:07.933Z,5.40
2023-01-11T05:36:37.090Z,5.50
2023-01-11T05:39:05.842Z,5.50
2023-01-11T05:41:33.849Z,5.50
2023-01-11T05:44:19.728Z,5.50
2023-01-11T05:46:47.174Z,5.50
2023-01-11T05:49:15.064Z,5.50
2023-01-11T05:51:43.982Z,5.50
2023-01-11T05:54:13.750Z,5.50
2023-01-11T05:56:44.825Z,5.50
2023-01-11T05:59:12.957Z,5.50
2023-01-11T06:01:40.658Z,5.50
2023-01-11T06:04:08.716Z,5.50
2023-01-11T06:06:36.293Z,5.60
2023-01-11T06:09:03.885Z,5.60
2023-01-11T06:11:31.353Z,5.50
2023-01-11T06:13:58.888Z,5.50
2023-01-11T06:16:26.381Z,5.60
2023-01-11T06:18:54.798Z,5.50
2023-01-11T06:21:22.412Z,5.50
2023-01-11T06:23:51.187Z,5.40
2023-01-11T06:26:22.078Z,5.40
2023-01-11T06:28:50.948Z,5.40
2023-01-11T06:31:19.449Z,5.40
2023-01-11T06:33:47.601Z,5.40
2023-01-11T06:36:16.161Z,5.40
2023-01-11T06:38:45.191Z,5.50
2023-01-11T06:41:13.663Z,5.50
2023-01-11T06:43:42.238Z,5.50
2023-01-11T06:46:14.380Z,5.50
2023-01-11T06:48:42.428Z,5.60
2023-01-11T06:51:13.329Z,5.60
2023-01-11T06:53:42.238Z,5.60
2023-01-11T06:56:19.034Z,5.60
2023-01-11T06:58:47.606Z,5.60
2023-01-11T07:01:16.448Z,5.60
2023-01-11T07:03:45.396Z,5.60
2023-01-11T07:06:13.917Z,5.60
2023-01-11T07:08:42.704Z,5.50
2023-01-11T07:11:10.780Z,5.60
2023-01-11T07:13:38.364Z,5.50
2023-01-11T07:16:06.117Z,5.50
2023-01-11T07:18:33.721Z,5.50
2023-01-11T07:21:02.406Z,5.50
2023-01-11T07:23:29.994Z,5.40
2023-01-11T07:25:57.515Z,5.50
2023-01-11T07:28:25.049Z,5.50
2023-01-11T07:30:58.750Z,5.50
2023-01-11T07:33:27.288Z,5.50
2023-01-11T07:35:55.022Z,5.50
2023-01-11T07:38:23.265Z,5.50
2023-01-11T07:40:50.788Z,5.50
2023-01-11T07:43:19.981Z,5.50
2023-01-11T07:45:49.803Z,5.50
2023-01-11T07:48:27.179Z,5.60
2023-01-11T07:50:55.597Z,5.60
2023-01-11T07:53:25.959Z,5.60
2023-01-11T07:55:56.080Z,5.70
2023-01-11T07:58:23.912Z,5.60
2023-01-11T08:00:51.711Z,5.60
2023-01-11T08:03:19.328Z,5.60
2023-01-11T08:05:51.759Z,5.70
2023-01-11T08:08:19.360Z,5.70
2023-01-11T08:10:46.767Z,5.60
2023-01-11T08:13:33.283Z,5.60
2023-01-11T08:16:00.765Z,5.60
2023-01-11T08:18:28.150Z,5.70
2023-01-11T08:20:55.674Z,5.70
2023-01-11T08:23:23.175Z,5.70
2023-01-11T08:25:55.694Z,5.70
2023-01-11T08:28:23.192Z,5.70
2023-01-11T08:30:50.623Z,5.70
2023-01-11T08:33:18.138Z,5.70
2023-01-11T08:35:46.079Z,5.70
2023-01-11T08:38:13.559Z,5.60
2023-01-11T08:40:41.041Z,5.70
2023-01-11T08:43:08.496Z,5.70
2023-01-11T08:45:36.060Z,5.70
2023-01-11T08:48:03.679Z,5.60
2023-01-11T08:50:31.157Z,5.60
2023-01-11T08:52:58.624Z,5.70
2023-01-11T08:55:26.124Z,5.70
2023-01-11T08:57:53.699Z,5.70
2023-01-11T09:00:21.222Z,5.70
2023-01-11T09:02:48.893Z,5.70
2023-01-11T09:05:18.249Z,5.70
2023-01-11T09:07:46.751Z,5.70
2023-01-11T09:10:14.227Z,5.70
2023-01-11T09:12:41.815Z,5.70
2023-01-11T09:15:10.461Z,5.70
2023-01-11T09:17:38.017Z,5.70
2023-01-11T09:20:06.142Z,5.70
2023-01-11T09:22:34.141Z,5.70
2023-01-11T09:25:01.650Z,5.70
2023-01-11T09:27:29.179Z,5.70
2023-01-11T09:29:56.704Z,5.70
2023-01-11T09:32:24.277Z,5.80
2023-01-11T09:34:57.337Z,5.70
2023-01-11T09:37:24.996Z,5.80
2023-01-11T09:39:52.721Z,5.90
2023-01-11T09:42:24.424Z,5.90
2023-01-11T09:44:56.774Z,5.90
2023-01-11T09:47:51.224Z,5.90
2023-01-11T09:50:26.027Z,5.90
2023-01-11T09:53:08.922Z,5.90
2023-01-11T09:55:43.408Z,6.00
2023-01-11T09:58:31.997Z,5.90
2023-01-11T10:01:31.589Z,5.90
2023-01-11T10:04:33.109Z,6.00
2023-01-11T10:07:49.707Z,6.00
2023-01-11T10:18:33.076Z,6.10
2023-01-11T10:19:48.100Z,6.10
2023-01-11T10:22:36.911Z,6.10
2023-01-11T10:25:19.019Z,6.20
2023-01-11T10:28:07.505Z,6.20
2023-01-11T10:31:03.620Z,6.20
2023-01-11T10:34:03.911Z,6.20
2023-01-11T10:37:07.996Z,6.30
2023-01-11T10:40:34.860Z,6.30
2023-01-11T10:43:17.120Z,6.30
2023-01-11T10:45:52.120Z,6.30
2023-01-11T10:48:40.224Z,6.40
2023-01-11T10:51:07.889Z,6.40
2023-01-11T10:53:55.040Z,6.40
2023-01-11T10:57:01.778Z,6.50
2023-01-11T10:59:48.706Z,6.50
2023-01-11T11:02:37.945Z,6.60
2023-01-11T11:05:25.396Z,6.60
2023-01-11T11:08:01.846Z,6.50
2023-01-11T11:10:42.867Z,6.50
2023-01-11T11:13:19.461Z,6.50
2023-01-11T11:15:47.022Z,6.40
2023-01-11T11:18:14.592Z,6.50
2023-01-11T11:20:44.208Z,6.50
2023-01-11T11:23:17.047Z,6.40
2023-01-11T11:25:51.463Z,6.40
2023-01-11T11:28:28.270Z,6.40
2023-01-11T11:30:59.351Z,6.40
2023-01-11T11:33:36.024Z,6.40
2023-01-11T11:36:13.778Z,6.40
2023-01-11T11:39:00.463Z,6.50
2023-01-11T11:41:28.023Z,6.50
2023-01-11T11:44:14.922Z,6.60
2023-01-11T11:47:00.423Z,6.60
2023-01-11T11:49:30.401Z,6.70
2023-01-11T11:52:00.772Z,6.70
2023-01-11T11:54:35.400Z,6.80
2023-01-11T11:57:37.181Z,6.80
2023-01-11T12:00:33.556Z,6.80
2023-01-11T12:03:13.019Z,6.80
2023-01-11T12:05:57.404Z,6.90
2023-01-11T12:08:26.035Z,6.90
2023-01-11T12:10:59.912Z,6.90
2023-01-11T12:13:38.893Z,6.90
2023-01-11T12:16:23.123Z,7.00
2023-01-11T12:18:50.664Z,7.00
2023-01-11T12:21:23.355Z,6.90
2023-01-11T12:24:24.021Z,6.90
2023-01-11T12:27:06.249Z,6.90
2023-01-11T12:30:03.357Z,6.90
2023-01-11T12:33:08.302Z,6.80
2023-01-11T12:35:48.742Z,6.80
2023-01-11T12:38:36.506Z,6.90
2023-01-11T12:41:44.152Z,7.10
2023-01-11T12:44:40.182Z,7.30
2023-01-11T12:47:11.431Z,7.20
2023-01-11T12:49:42.029Z,7.20
2023-01-11T12:52:29.084Z,7.20
2023-01-11T12:55:10.121Z,7.40
2023-01-11T12:57:54.211Z,7.40
2023-01-11T13:00:50.463Z,7.50
2023-01-11T13:03:49.101Z,7.40
2023-01-11T13:06:16.635Z,7.30
2023-01-11T13:08:48.173Z,7.30
2023-01-11T13:11:37.804Z,7.20
2023-01-11T13:14:35.998Z,7.10
2023-01-11T13:17:29.295Z,7.10
2023-01-11T13:20:09.450Z,7.10
2023-01-11T13:22:46.018Z,7.10
2023-01-11T13:25:24.197Z,7.00
2023-01-11T13:27:54.693Z,6.90
2023-01-11T13:30:27.652Z,6.90
2023-01-11T13:33:14.119Z,6.90
2023-01-11T13:35:43.577Z,6.90
2023-01-11T13:38:41.633Z,6.90
2023-01-11T13:41:21.016Z,6.90
2023-01-11T13:44:13.949Z,6.90
2023-01-11T13:47:05.752Z,7.00
2023-01-11T13:49:45.382Z,7.00
2023-01-11T13:52:15.136Z,7.00
2023-01-11T13:54:55.022Z,7.00
2023-01-11T13:57:51.938Z,7.00
2023-01-11T14:00:27.351Z,6.90
2023-01-11T14:03:20.524Z,6.90
2023-01-11T14:06:27.511Z,6.90
2023-01-11T14:09:21.997Z,7.00
2023-01-11T14:12:10.892Z,6.90
2023-01-11T14:15:20.256Z,6.90
2023-01-11T14:18:09.999Z,6.80
2023-01-11T14:20:50.388Z,6.70
2023-01-11T14:23:28.998Z,6.70
2023-01-11T14:26:15.326Z,6.70
2023-01-11T14:29:07.933Z,6.70
2023-01-11T14:32:13.587Z,6.60
2023-01-11T14:34:50.119Z,6.70
2023-01-11T14:37:20.496Z,6.60
2023-01-11T14:39:53.503Z,6.60
2023-01-11T14:42:33.489Z,6.60
2023-01-11T14:45:02.497Z,6.50
2023-01-11T14:47:50.542Z,6.50
2023-01-11T14:50:38.595Z,6.50
2023-01-11T14:53:09.578Z,6.50
2023-01-11T14:55:46.443Z,6.50
2023-01-11T14:58:31.652Z,6.50
2023-01-11T15:00:59.089Z,6.50
2023-01-11T15:03:36.335Z,6.40
2023-01-11T15:06:16.531Z,6.40
2023-01-11T15:08:48.292Z,6.40
2023-01-11T15:11:29.073Z,6.40
2023-01-11T15:14:05.285Z,6.30
2023-01-11T15:16:53.648Z,6.30
2023-01-11T15:19:33.987Z,6.30
2023-01-11T15:22:04.262Z,6.20
2023-01-11T15:24:35.677Z,6.30
2023-01-11T15:27:03.660Z,6.30
2023-01-11T15:29:40.581Z,6.20
2023-01-11T15:32:41.491Z,6.20
2023-01-11T15:35:38.303Z,6.10
2023-01-11T15:38:08.594Z,6.10
2023-01-11T15:40:40.770Z,6.00
2023-01-11T15:43:45.766Z,6.00
2023-01-11T15:46:45.473Z,6.00
2023-01-11T15:49:50.620Z,5.90
2023-01-11T15:52:50.570Z,5.80
2023-01-11T15:55:48.399Z,5.80
2023-01-11T15:58:15.999Z,5.80
2023-01-11T16:01:22.834Z,5.80
2023-01-11T16:04:14.404Z,5.70
2023-01-11T16:06:57.382Z,5.70
2023-01-11T16:09:42.962Z,5.70
2023-01-11T16:12:27.363Z,5.60
2023-01-11T16:14:57.831Z,5.70
2023-01-11T16:17:26.406Z,5.60
2023-01-11T16:19:56.999Z,5.60
2023-01-11T16:22:27.723Z,5.50
2023-01-11T16:25:01.473Z,5.50
2023-01-11T16:27:32.947Z,5.50
2023-01-11T16:30:01.770Z,5.40
2023-01-11T16:32:34.529Z,5.40
2023-01-11T16:35:03.762Z,5.40
2023-01-11T16:37:37.061Z,5.30
2023-01-11T16:40:10.990Z,5.30
2023-01-11T16:42:50.710Z,5.20
2023-01-11T16:45:24.089Z,5.10
2023-01-11T16:48:07.942Z,5.10
2023-01-11T16:50:36.531Z,5.10
2023-01-11T16:53:25.801Z,5.00
2023-01-11T16:56:07.629Z,5.00
2023-01-11T16:58:37.915Z,4.90
2023-01-11T17:01:14.289Z,4.90
2023-01-11T17:03:54.077Z,5.00
2023-01-11T17:06:24.335Z,4.90
2023-01-11T17:08:52.899Z,4.90
2023-01-11T17:11:50.139Z,4.90
2023-01-11T17:14:55.127Z,4.90
2023-01-11T17:17:23.463Z,4.80
2023-01-11T17:19:51.244Z,4.80
2023-01-11T17:22:27.531Z,4.80
2023-01-11T17:25:01.234Z,4.70
2023-01-11T17:27:41.212Z,4.70
2023-01-11T17:30:28.668Z,4.70
2023-01-11T17:33:01.419Z,4.60
2023-01-11T17:35:33.707Z,4.50
2023-01-11T17:38:07.099Z,4.60
2023-01-11T17:40:40.730Z,4.50
2023-01-11T17:43:40.948Z,4.50
2023-01-11T17:46:18.012Z,4.50
2023-01-11T17:48:59.914Z,4.50
2023-01-11T17:51:33.492Z,4.40
2023-01-11T17:54:01.320Z,4.30
2023-01-11T17:56:38.593Z,4.30
2023-01-11T17:59:12.216Z,4.30
2023-01-11T18:01:45.373Z,5.20
2023-01-11T18:04:19.247Z,4.30
2023-01-11T18:06:48.620Z,4.30
2023-01-11T18:09:19.008Z,4.30
2023-01-11T18:11:47.077Z,4.30
2023-01-11T18:14:25.268Z,4.30
2023-01-11T18:16:56.088Z,4.30
2023-01-11T18:19:41.356Z,4.30
2023-01-11T18:22:40.571Z,4.30
2023-01-11T18:25:28.509Z,4.20
2023-01-11T18:28:17.761Z,4.30
2023-01-11T18:30:52.272Z,4.30
2023-01-11T18:33:23.123Z,4.20
2023-01-11T18:35:57.890Z,4.20
2023-01-11T18:38:28.880Z,4.20
2023-01-11T18:40:59.063Z,4.20
2023-01-11T18:43:29.801Z,4.20
2023-01-11T18:45:57.548Z,4.20
2023-01-11T18:48:25.108Z,4.20
2023-01-11T18:50:54.605Z,4.30
2023-01-11T18:53:23.741Z,4.20
2023-01-11T18:55:51.228Z,4.30
2023-01-11T18:58:18.756Z,4.30
2023-01-11T19:00:46.267Z,4.30
2023-01-11T19:05:46.573Z,4.30
2023-01-11T19:08:14.031Z,4.30
2023-01-11T19:10:41.571Z,4.30
2023-01-11T19:13:09.028Z,4.30
2023-01-11T19:15:36.686Z,4.40
2023-01-11T19:18:04.255Z,4.50
2023-01-11T19:23:04.281Z,4.50
2023-01-11T19:25:31.716Z,4.60
2023-01-11T19:27:59.197Z,4.60
2023-01-11T19:30:26.835Z,4.70
2023-01-11T19:32:55.577Z,4.70
2023-01-11T19:35:23.735Z,4.60
2023-01-11T19:37:52.177Z,4.80
2023-01-11T19:40:21.303Z,4.80
2023-01-11T19:42:52.394Z,4.80
2023-01-11T19:45:20.007Z,4.80
2023-01-11T19:47:47.627Z,4.80
2023-01-11T19:50:17.095Z,4.80
2023-01-11T19:52:46.784Z,4.90
2023-01-11T19:55:14.335Z,4.90
2023-01-11T19:57:41.880Z,4.90
2023-01-11T20:00:11.633Z,4.90
2023-01-11T20:02:42.416Z,4.90
2023-01-11T20:05:10.059Z,4.90
2023-01-11T20:07:37.517Z,5.00
2023-01-11T20:10:05.291Z,5.10
2023-01-11T20:12:32.725Z,5.00
2023-01-11T20:15:01.358Z,5.10
2023-01-11T20:17:29.560Z,5.10
2023-01-11T20:19:57.201Z,5.10
2023-01-11T20:22:25.047Z,5.20
2023-01-11T20:24:52.779Z,5.20
2023-01-11T20:27:20.455Z,5.20
2023-01-11T20:29:48.018Z,5.10
2023-01-11T20:32:39.116Z,5.00
2023-01-11T20:35:04.677Z,5.00
2023-01-11T20:37:32.204Z,5.00
2023-01-11T20:39:59.769Z,5.00
2023-01-11T20:42:27.182Z,5.00
2023-01-11T20:44:54.689Z,5.00
2023-01-11T20:47:22.161Z,5.00
2023-01-11T20:49:49.777Z,4.90
2023-01-11T20:52:17.279Z,4.90
2023-01-11T20:54:44.838Z,4.80
2023-01-11T20:57:12.943Z,4.80
2023-01-11T20:59:40.441Z,4.80
2023-01-11T21:02:09.666Z,4.70
2023-01-11T21:04:37.231Z,4.70
2023-01-11T21:07:04.834Z,4.70
2023-01-11T21:09:32.493Z,4.60
2023-01-11T21:11:59.963Z,4.70
2023-01-11T21:14:27.543Z,4.60
2023-01-11T21:16:56.133Z,4.50
2023-01-11T21:19:23.679Z,4.50
2023-01-11T21:21:51.146Z,4.60
2023-01-11T21:24:18.769Z,4.50
2023-01-11T21:26:48.140Z,4.60
2023-01-11T21:29:15.887Z,4.50
2023-01-11T21:31:43.653Z,4.40
2023-01-11T21:34:12.737Z,4.50
2023-01-11T21:36:42.661Z,4.40
2023-01-11T21:39:13.708Z,4.40
2023-01-11T21:42:01.808Z,4.30
2023-01-11T21:44:34.481Z,4.30
2023-01-11T21:47:04.023Z,4.40
2023-01-11T21:49:32.497Z,4.30
2023-01-11T21:52:01.098Z,4.40
2023-01-11T21:54:28.646Z,4.30
2023-01-11T21:56:56.111Z,4.30
2023-01-11T21:59:24.514Z,4.30
2023-01-11T22:01:52.226Z,4.30
2023-01-11T22:04:20.689Z,4.30
2023-01-11T22:06:54.017Z,4.30
2023-01-11T22:09:22.324Z,4.30
2023-01-11T22:11:51.041Z,4.30
2023-01-11T22:14:18.805Z,4.40
2023-01-11T22:16:46.445Z,4.30
2023-01-11T22:19:14.294Z,4.40
2023-01-11T22:21:42.003Z,4.40
2023-01-11T22:24:11.837Z,4.40
2023-01-11T22:26:39.642Z,4.40
2023-01-11T22:29:17.354Z,4.30
2023-01-11T22:31:51.381Z,4.30
2023-01-11T22:34:19.361Z,4.40
2023-01-11T22:36:47.532Z,4.40
2023-01-11T22:39:16.796Z,4.40
2023-01-11T22:41:46.044Z,4.40
2023-01-11T22:44:14.504Z,4.50
2023-01-11T22:46:42.884Z,4.50
2023-01-11T22:49:11.237Z,4.40
2023-01-11T22:51:39.760Z,4.50
2023-01-11T22:54:07.393Z,4.50
2023-01-11T22:56:34.955Z,4.50
2023-01-11T22:59:02.607Z,4.60
2023-01-11T23:01:32.964Z,4.60
2023-01-11T23:04:01.299Z,4.70
2023-01-11T23:06:39.973Z,4.80
2023-01-11T23:09:10.558Z,4.80
2023-01-11T23:11:57.850Z,4.80
2023-01-11T23:14:30.937Z,4.90
2023-01-11T23:17:09.110Z,4.90
2023-01-11T23:19:39.254Z,5.00
2023-01-11T23:22:08.253Z,4.90
2023-01-11T23:24:37.210Z,4.90
2023-01-11T23:27:05.560Z,4.90
2023-01-11T23:29:33.051Z,5.00
2023-01-11T23:32:00.620Z,5.00
2023-01-11T23:34:28.161Z,5.00
2023-01-11T23:36:55.885Z,5.00
2023-01-11T23:39:23.947Z,5.00
2023-01-11T23:42:10.298Z,5.00
2023-01-11T23:44:37.661Z,5.00
2023-01-11T23:47:29.664Z,5.10
2023-01-11T23:50:02.260Z,5.00
2023-01-11T23:52:31.813Z,4.90
2023-01-11T23:54:59.986Z,4.90
2023-01-11T23:57:27.656Z,4.90
2023-01-11T23:59:55.194Z,4.90
